Weather at Sky Ranch Airport

Public forecast

Using degrees Fahrenheit for public forecast. Weather courtesy of forecast.io.

Closest aviation weather report (METAR) to Sky Ranch Airport

Closest report is Bolton Field, 5.0 nm (9.3 km) ESE. Retrieved 2021/07/24 15:50 UTC (46 minutes ago):

KTZR 241550Z 24006KT 10SM CLR 26/19 A3008

Closest aviation forecast (TAF) to Sky Ranch Airport

Closest forecast is Rickenbacker International Airport, 16.0 nm (29.6 km) ESE. Retrieved 2021/07/24 12:31 UTC (4 hours ago):

TAF KLCK 241126Z 2412/2512 15004KT P6SM BKN100 FM241500 19006KT P6SM SCT050 FM250600 21006KT P6SM VCSH BKN060